Sperling, Canada
Current Conditions -  °F | °C
As of 5:00 PM on Wednesday 17 Dec 2014 (Local Time) from CYWG Reporting Station
Clear Clear  
Wind Chill: 10°   Ceiling: Unl
Heat Index: 10°   Visibility: 15mi
Dew Point:   Wind: 0mph
Humidity: 79%   Direction: NA
Pressure: 30.35"   Gusts: NA
Location:  49.52°N, 97.7°W
Report Text: CYWG 172300Z 00000KT 15SM SKC M12/M15 A3035 RMK SLP302
Loading
Personal Weather Stations






























Interactive Weather Map New forecast layout! Learn more

10-Day Weather Forecast

Advertisements
Track Severe Weather on mobile